sensor_id;sensor_type;location;lat;lon;timestamp;pressure;altitude;pressure_sealevel;temperature;humidity
74228;BME280;62587;52.352;5.006;2022-07-30T00:01:05;101839.91;;;24.95;50.44
74228;BME280;62587;52.352;5.006;2022-07-30T00:03:32;101841.03;;;25.03;50.58
74228;BME280;62587;52.352;5.006;2022-07-30T00:05:58;101841.16;;;25.02;50.42
74228;BME280;62587;52.352;5.006;2022-07-30T00:08:23;101837.00;;;24.98;50.62
74228;BME280;62587;52.352;5.006;2022-07-30T00:10:49;101837.81;;;24.98;50.45
74228;BME280;62587;52.352;5.006;2022-07-30T00:13:14;101837.09;;;24.96;50.58
74228;BME280;62587;52.352;5.006;2022-07-30T00:15:40;101831.63;;;24.98;50.54
74228;BME280;62587;52.352;5.006;2022-07-30T00:18:05;101824.78;;;24.94;50.49
74228;BME280;62587;52.352;5.006;2022-07-30T00:20:31;101829.28;;;24.93;50.51
74228;BME280;62587;52.352;5.006;2022-07-30T00:22:56;101821.72;;;24.87;50.48
74228;BME280;62587;52.352;5.006;2022-07-30T00:25:22;101819.75;;;24.89;50.50
74228;BME280;62587;52.352;5.006;2022-07-30T00:27:48;101827.69;;;24.91;50.83
74228;BME280;62587;52.352;5.006;2022-07-30T00:30:13;101825.41;;;24.97;50.20
74228;BME280;62587;52.352;5.006;2022-07-30T00:32:39;101810.03;;;24.88;50.41
74228;BME280;62587;52.352;5.006;2022-07-30T00:35:05;101817.47;;;24.96;50.40
74228;BME280;62587;52.352;5.006;2022-07-30T00:37:30;101816.97;;;24.91;50.34
74228;BME280;62587;52.352;5.006;2022-07-30T00:39:56;101815.63;;;24.85;50.54
74228;BME280;62587;52.352;5.006;2022-07-30T00:42:21;101816.47;;;24.86;50.42
74228;BME280;62587;52.352;5.006;2022-07-30T00:44:53;101816.69;;;24.83;50.49
74228;BME280;62587;52.352;5.006;2022-07-30T00:47:18;101816.22;;;24.89;50.33
74228;BME280;62587;52.352;5.006;2022-07-30T00:49:44;101806.88;;;24.94;50.16
74228;BME280;62587;52.352;5.006;2022-07-30T00:52:10;101809.19;;;24.88;50.17
74228;BME280;62587;52.352;5.006;2022-07-30T00:54:35;101819.75;;;24.89;50.09
74228;BME280;62587;52.352;5.006;2022-07-30T00:57:01;101810.88;;;24.89;50.33
74228;BME280;62587;52.352;5.006;2022-07-30T00:59:26;101807.44;;;24.87;50.17
74228;BME280;62587;52.352;5.006;2022-07-30T01:01:52;101814.41;;;24.89;50.20
74228;BME280;62587;52.352;5.006;2022-07-30T01:04:18;101806.50;;;24.88;50.04
74228;BME280;62587;52.352;5.006;2022-07-30T01:06:43;101793.53;;;24.82;50.32
74228;BME280;62587;52.352;5.006;2022-07-30T01:09:09;101803.91;;;24.86;50.03
74228;BME280;62587;52.352;5.006;2022-07-30T01:11:36;101797.09;;;24.82;50.09
74228;BME280;62587;52.352;5.006;2022-07-30T01:14:06;101807.66;;;24.84;50.06
74228;BME280;62587;52.352;5.006;2022-07-30T01:16:36;101798.81;;;24.83;50.10
74228;BME280;62587;52.352;5.006;2022-07-30T01:19:06;101804.38;;;24.80;50.10
74228;BME280;62587;52.352;5.006;2022-07-30T01:21:59;101810.34;;;24.84;50.09
74228;BME280;62587;52.352;5.006;2022-07-30T01:24:32;101814.88;;;24.83;50.04
74228;BME280;62587;52.352;5.006;2022-07-30T01:27:00;101809.75;;;24.80;49.85
74228;BME280;62587;52.352;5.006;2022-07-30T01:29:28;101816.78;;;24.81;50.12
74228;BME280;62587;52.352;5.006;2022-07-30T01:31:56;101820.31;;;24.82;50.02
74228;BME280;62587;52.352;5.006;2022-07-30T01:34:27;101810.59;;;24.81;50.05
74228;BME280;62587;52.352;5.006;2022-07-30T01:36:55;101805.13;;;24.82;49.80
74228;BME280;62587;52.352;5.006;2022-07-30T01:39:22;101810.06;;;24.76;50.03
74228;BME280;62587;52.352;5.006;2022-07-30T01:41:48;101815.75;;;24.71;50.19
74228;BME280;62587;52.352;5.006;2022-07-30T01:44:15;101811.78;;;24.77;50.03
74228;BME280;62587;52.352;5.006;2022-07-30T01:46:41;101815.19;;;24.79;50.01
74228;BME280;62587;52.352;5.006;2022-07-30T01:49:07;101802.78;;;24.65;50.14
74228;BME280;62587;52.352;5.006;2022-07-30T01:51:36;101812.00;;;24.74;49.99
74228;BME280;62587;52.352;5.006;2022-07-30T01:54:05;101810.16;;;24.74;49.89
74228;BME280;62587;52.352;5.006;2022-07-30T01:56:31;101809.09;;;24.77;49.92
74228;BME280;62587;52.352;5.006;2022-07-30T01:58:57;101811.56;;;24.80;49.79
74228;BME280;62587;52.352;5.006;2022-07-30T02:01:23;101804.25;;;24.82;49.81
74228;BME280;62587;52.352;5.006;2022-07-30T02:03:49;101811.69;;;24.78;49.89
74228;BME280;62587;52.352;5.006;2022-07-30T02:06:22;101804.69;;;24.76;49.86
74228;BME280;62587;52.352;5.006;2022-07-30T02:08:53;101809.09;;;24.77;49.91
74228;BME280;62587;52.352;5.006;2022-07-30T02:11:20;101811.00;;;24.75;49.84
74228;BME280;62587;52.352;5.006;2022-07-30T02:14:18;101805.03;;;24.71;49.88
74228;BME280;62587;52.352;5.006;2022-07-30T02:16:50;101809.97;;;24.77;49.68
74228;BME280;62587;52.352;5.006;2022-07-30T02:19:18;101807.38;;;24.76;49.81
74228;BME280;62587;52.352;5.006;2022-07-30T02:21:48;101811.13;;;24.73;49.71
74228;BME280;62587;52.352;5.006;2022-07-30T02:24:19;101818.72;;;24.79;49.49
74228;BME280;62587;52.352;5.006;2022-07-30T02:26:49;101815.97;;;24.81;49.32
74228;BME280;62587;52.352;5.006;2022-07-30T02:29:18;101812.09;;;24.72;49.60
74228;BME280;62587;52.352;5.006;2022-07-30T02:31:44;101817.22;;;24.75;49.49
74228;BME280;62587;52.352;5.006;2022-07-30T02:34:10;101812.63;;;24.77;49.42
74228;BME280;62587;52.352;5.006;2022-07-30T02:36:38;101793.28;;;24.61;49.54
74228;BME280;62587;52.352;5.006;2022-07-30T02:39:07;101809.97;;;24.77;49.48
74228;BME280;62587;52.352;5.006;2022-07-30T02:41:34;101818.00;;;24.77;49.37
74228;BME280;62587;52.352;5.006;2022-07-30T02:44:03;101814.09;;;24.81;49.38
74228;BME280;62587;52.352;5.006;2022-07-30T02:46:30;101802.34;;;24.71;49.32
74228;BME280;62587;52.352;5.006;2022-07-30T02:48:57;101817.66;;;24.69;49.78
74228;BME280;62587;52.352;5.006;2022-07-30T02:51:23;101812.44;;;24.67;49.76
74228;BME280;62587;52.352;5.006;2022-07-30T02:53:50;101807.72;;;24.71;49.66
74228;BME280;62587;52.352;5.006;2022-07-30T02:56:18;101809.31;;;24.74;49.66
74228;BME280;62587;52.352;5.006;2022-07-30T02:58:44;101810.41;;;24.71;49.52
74228;BME280;62587;52.352;5.006;2022-07-30T03:01:12;101806.22;;;24.67;49.63
74228;BME280;62587;52.352;5.006;2022-07-30T03:03:42;101810.81;;;24.65;49.73
74228;BME280;62587;52.352;5.006;2022-07-30T03:06:07;101810.59;;;24.68;49.67
74228;BME280;62587;52.352;5.006;2022-07-30T03:08:34;101804.41;;;24.67;49.53
74228;BME280;62587;52.352;5.006;2022-07-30T03:10:59;101806.34;;;24.65;50.66
74228;BME280;62587;52.352;5.006;2022-07-30T03:13:26;101786.34;;;24.58;51.61
74228;BME280;62587;52.352;5.006;2022-07-30T03:15:52;101787.59;;;24.65;53.63
74228;BME280;62587;52.352;5.006;2022-07-30T03:18:20;101797.34;;;24.67;53.37
74228;BME280;62587;52.352;5.006;2022-07-30T03:20:49;101797.09;;;24.70;53.30
74228;BME280;62587;52.352;5.006;2022-07-30T03:23:17;101797.56;;;24.63;53.31
74228;BME280;62587;52.352;5.006;2022-07-30T03:25:47;101798.31;;;24.65;53.07
74228;BME280;62587;52.352;5.006;2022-07-30T03:28:15;101798.31;;;24.65;52.75
74228;BME280;62587;52.352;5.006;2022-07-30T03:30:42;101797.22;;;24.68;52.91
74228;BME280;62587;52.352;5.006;2022-07-30T03:33:08;101799.91;;;24.68;52.94
74228;BME280;62587;52.352;5.006;2022-07-30T03:35:35;101792.00;;;24.67;52.62
74228;BME280;62587;52.352;5.006;2022-07-30T03:38:01;101800.25;;;24.63;52.68
74228;BME280;62587;52.352;5.006;2022-07-30T03:40:27;101807.06;;;24.67;52.40
74228;BME280;62587;52.352;5.006;2022-07-30T03:42:54;101798.50;;;24.62;52.31
74228;BME280;62587;52.352;5.006;2022-07-30T03:45:19;101809.75;;;24.67;52.38
74228;BME280;62587;52.352;5.006;2022-07-30T03:47:46;101809.75;;;24.67;52.29
74228;BME280;62587;52.352;5.006;2022-07-30T03:50:12;101811.56;;;24.67;52.04
74228;BME280;62587;52.352;5.006;2022-07-30T03:52:40;101821.75;;;24.62;52.10
74228;BME280;62587;52.352;5.006;2022-07-30T03:55:07;101831.63;;;24.61;52.14
74228;BME280;62587;52.352;5.006;2022-07-30T03:57:33;101822.84;;;24.59;52.06
74228;BME280;62587;52.352;5.006;2022-07-30T03:59:58;101811.38;;;24.57;51.81
74228;BME280;62587;52.352;5.006;2022-07-30T04:02:24;101829.69;;;24.63;51.76
74228;BME280;62587;52.352;5.006;2022-07-30T04:04:49;101816.19;;;24.65;51.82
74228;BME280;62587;52.352;5.006;2022-07-30T04:07:14;101825.28;;;24.62;51.59
74228;BME280;62587;52.352;5.006;2022-07-30T04:09:40;101833.47;;;24.61;51.60
74228;BME280;62587;52.352;5.006;2022-07-30T04:12:05;101821.16;;;24.58;51.63
74228;BME280;62587;52.352;5.006;2022-07-30T04:14:41;101821.88;;;24.60;51.53
74228;BME280;62587;52.352;5.006;2022-07-30T04:17:11;101823.81;;;24.58;51.34
74228;BME280;62587;52.352;5.006;2022-07-30T04:19:43;101822.00;;;24.59;51.52
74228;BME280;62587;52.352;5.006;2022-07-30T04:22:12;101827.56;;;24.56;51.55
74228;BME280;62587;52.352;5.006;2022-07-30T04:24:39;101829.38;;;24.55;51.16
74228;BME280;62587;52.352;5.006;2022-07-30T04:27:06;101831.97;;;24.57;51.37
74228;BME280;62587;52.352;5.006;2022-07-30T04:29:31;101835.91;;;24.64;50.95
74228;BME280;62587;52.352;5.006;2022-07-30T04:31:56;101834.84;;;24.67;50.81
74228;BME280;62587;52.352;5.006;2022-07-30T04:34:22;101839.44;;;24.64;50.91
74228;BME280;62587;52.352;5.006;2022-07-30T04:36:47;101839.75;;;24.60;51.06
74228;BME280;62587;52.352;5.006;2022-07-30T04:39:13;101840.00;;;24.57;51.07
74228;BME280;62587;52.352;5.006;2022-07-30T04:41:38;101841.56;;;24.59;51.00
74228;BME280;62587;52.352;5.006;2022-07-30T04:44:04;101828.00;;;24.50;50.99
74228;BME280;62587;52.352;5.006;2022-07-30T04:46:30;101835.72;;;24.54;50.71
74228;BME280;62587;52.352;5.006;2022-07-30T04:48:55;101841.69;;;24.58;51.05
74228;BME280;62587;52.352;5.006;2022-07-30T04:51:32;101835.59;;;24.56;50.83
74228;BME280;62587;52.352;5.006;2022-07-30T04:53:58;101833.88;;;24.55;50.79
74228;BME280;62587;52.352;5.006;2022-07-30T04:56:26;101832.72;;;24.59;50.63
74228;BME280;62587;52.352;5.006;2022-07-30T04:58:55;101842.44;;;24.60;50.65
74228;BME280;62587;52.352;5.006;2022-07-30T05:01:23;101840.00;;;24.57;50.66
74228;BME280;62587;52.352;5.006;2022-07-30T05:03:51;101840.63;;;24.60;50.63
74228;BME280;62587;52.352;5.006;2022-07-30T05:06:17;101836.00;;;24.62;50.34
74228;BME280;62587;52.352;5.006;2022-07-30T05:08:43;101844.16;;;24.61;50.35
74228;BME280;62587;52.352;5.006;2022-07-30T05:11:12;101843.31;;;24.60;50.54
74228;BME280;62587;52.352;5.006;2022-07-30T05:13:42;101845.25;;;24.58;50.27
74228;BME280;62587;52.352;5.006;2022-07-30T05:16:08;101845.84;;;24.62;50.07
74228;BME280;62587;52.352;5.006;2022-07-30T05:18:34;101849.19;;;24.65;49.94
74228;BME280;62587;52.352;5.006;2022-07-30T05:20:59;101847.97;;;24.70;50.01
74228;BME280;62587;52.352;5.006;2022-07-30T05:23:24;101839.84;;;24.71;49.86
74228;BME280;62587;52.352;5.006;2022-07-30T05:25:50;101854.19;;;24.70;49.85
74228;BME280;62587;52.352;5.006;2022-07-30T05:28:15;101850.91;;;24.67;49.86
74228;BME280;62587;52.352;5.006;2022-07-30T05:30:40;101857.44;;;24.62;49.91
74228;BME280;62587;52.352;5.006;2022-07-30T05:33:06;101860.03;;;24.64;49.99
74228;BME280;62587;52.352;5.006;2022-07-30T05:35:31;101865.38;;;24.64;49.96
74228;BME280;62587;52.352;5.006;2022-07-30T05:37:58;101868.16;;;24.62;49.85
74228;BME280;62587;52.352;5.006;2022-07-30T05:40:24;101870.59;;;24.65;49.67
74228;BME280;62587;52.352;5.006;2022-07-30T05:42:49;101873.16;;;24.67;49.53
74228;BME280;62587;52.352;5.006;2022-07-30T05:45:14;101881.09;;;24.69;49.52
74228;BME280;62587;52.352;5.006;2022-07-30T05:47:40;101884.63;;;24.69;49.67
74228;BME280;62587;52.352;5.006;2022-07-30T05:50:05;101881.44;;;24.64;49.92
74228;BME280;62587;52.352;5.006;2022-07-30T05:52:32;101873.50;;;24.62;49.55
74228;BME280;62587;52.352;5.006;2022-07-30T05:54:57;101878.31;;;24.70;49.57
74228;BME280;62587;52.352;5.006;2022-07-30T05:57:22;101884.53;;;24.71;49.43
74228;BME280;62587;52.352;5.006;2022-07-30T05:59:47;101881.19;;;24.67;49.43
74228;BME280;62587;52.352;5.006;2022-07-30T06:02:14;101881.44;;;24.64;49.41
74228;BME280;62587;52.352;5.006;2022-07-30T06:04:40;101880.38;;;24.67;49.54
74228;BME280;62587;52.352;5.006;2022-07-30T06:07:05;101885.72;;;24.67;49.35
74228;BME280;62587;52.352;5.006;2022-07-30T06:09:30;101885.38;;;24.71;49.44
74228;BME280;62587;52.352;5.006;2022-07-30T06:11:55;101885.59;;;24.68;49.04
74228;BME280;62587;52.352;5.006;2022-07-30T06:14:21;101881.09;;;24.69;49.28
74228;BME280;62587;52.352;5.006;2022-07-30T06:16:46;101892.78;;;24.67;49.28
74228;BME280;62587;52.352;5.006;2022-07-30T06:19:11;101886.69;;;24.65;49.22
74228;BME280;62587;52.352;5.006;2022-07-30T06:21:37;101890.44;;;24.63;49.12
74228;BME280;62587;52.352;5.006;2022-07-30T06:24:02;101887.41;;;24.67;49.01
74228;BME280;62587;52.352;5.006;2022-07-30T06:26:27;101889.34;;;24.65;49.15
74228;BME280;62587;52.352;5.006;2022-07-30T06:28:53;101894.50;;;24.69;48.79
74228;BME280;62587;52.352;5.006;2022-07-30T06:31:18;101888.41;;;24.67;49.04
74228;BME280;62587;52.352;5.006;2022-07-30T06:33:43;101886.47;;;24.69;48.75
74228;BME280;62587;52.352;5.006;2022-07-30T06:36:09;101894.50;;;24.69;48.67
74228;BME280;62587;52.352;5.006;2022-07-30T06:38:34;101893.50;;;24.70;48.82
74228;BME280;62587;52.352;5.006;2022-07-30T06:40:59;101895.13;;;24.72;48.43
74228;BME280;62587;52.352;5.006;2022-07-30T06:43:25;101889.34;;;24.65;48.51
74228;BME280;62587;52.352;5.006;2022-07-30T06:45:50;101889.97;;;24.69;48.66
74228;BME280;62587;52.352;5.006;2022-07-30T06:48:15;101898.78;;;24.71;48.35
74228;BME280;62587;52.352;5.006;2022-07-30T06:50:40;101884.41;;;24.72;48.40
74228;BME280;62587;52.352;5.006;2022-07-30T06:53:06;101891.09;;;24.67;48.45
74228;BME280;62587;52.352;5.006;2022-07-30T06:55:32;101883.25;;;24.63;48.19
74228;BME280;62587;52.352;5.006;2022-07-30T06:57:58;101893.50;;;24.70;48.19
74228;BME280;62587;52.352;5.006;2022-07-30T07:00:23;101890.22;;;24.66;48.29
74228;BME280;62587;52.352;5.006;2022-07-30T07:02:48;101904.56;;;24.65;47.90
74228;BME280;62587;52.352;5.006;2022-07-30T07:05:14;101897.38;;;24.65;47.96
74228;BME280;62587;52.352;5.006;2022-07-30T07:07:39;101895.91;;;24.61;47.97
74228;BME280;62587;52.352;5.006;2022-07-30T07:10:05;101886.81;;;24.64;47.98
74228;BME280;62587;52.352;5.006;2022-07-30T07:12:31;101889.56;;;24.62;47.92
74228;BME280;62587;52.352;5.006;2022-07-30T07:14:56;101891.69;;;24.70;47.41
74228;BME280;62587;52.352;5.006;2022-07-30T07:17:21;101883.78;;;24.69;47.53
74228;BME280;62587;52.352;5.006;2022-07-30T07:19:47;101890.97;;;24.68;47.74
74228;BME280;62587;52.352;5.006;2022-07-30T07:22:12;101893.84;;;24.65;47.37
74228;BME280;62587;52.352;5.006;2022-07-30T07:24:37;101892.16;;;24.64;47.44
74228;BME280;62587;52.352;5.006;2022-07-30T07:27:03;101900.50;;;24.59;47.34
74228;BME280;62587;52.352;5.006;2022-07-30T07:29:28;101893.22;;;24.61;47.32
74228;BME280;62587;52.352;5.006;2022-07-30T07:31:53;101904.47;;;24.67;47.25
74228;BME280;62587;52.352;5.006;2022-07-30T07:34:19;101903.81;;;24.63;47.41
74228;BME280;62587;52.352;5.006;2022-07-30T07:36:44;101907.03;;;24.68;47.19
74228;BME280;62587;52.352;5.006;2022-07-30T07:39:09;101904.34;;;24.68;47.27
74228;BME280;62587;52.352;5.006;2022-07-30T07:41:37;101897.06;;;24.70;46.97
74228;BME280;62587;52.352;5.006;2022-07-30T07:44:04;101903.38;;;24.69;46.89
74228;BME280;62587;52.352;5.006;2022-07-30T07:46:30;101901.16;;;24.63;47.15
74228;BME280;62587;52.352;5.006;2022-07-30T07:48:55;101898.88;;;24.70;46.91
74228;BME280;62587;52.352;5.006;2022-07-30T07:51:20;101901.03;;;24.64;47.12
74228;BME280;62587;52.352;5.006;2022-07-30T07:53:45;101906.81;;;24.71;47.01
74228;BME280;62587;52.352;5.006;2022-07-30T07:56:11;101908.72;;;24.69;46.91
74228;BME280;62587;52.352;5.006;2022-07-30T07:58:36;101909.38;;;24.73;46.82
74228;BME280;62587;52.352;5.006;2022-07-30T08:01:02;101910.03;;;24.76;46.70
74228;BME280;62587;52.352;5.006;2022-07-30T08:03:27;101901.56;;;24.70;46.98
74228;BME280;62587;52.352;5.006;2022-07-30T08:05:53;101904.88;;;24.73;46.77
74228;BME280;62587;52.352;5.006;2022-07-30T08:08:18;101911.09;;;24.74;46.72
74228;BME280;62587;52.352;5.006;2022-07-30T08:10:43;101910.03;;;24.76;46.44
74228;BME280;62587;52.352;5.006;2022-07-30T08:13:08;101910.03;;;24.76;46.48
74228;BME280;62587;52.352;5.006;2022-07-30T08:15:34;101914.72;;;24.73;46.58
74228;BME280;62587;52.352;5.006;2022-07-30T08:17:59;101914.50;;;24.76;46.68
74228;BME280;62587;52.352;5.006;2022-07-30T08:20:25;101910.88;;;24.77;46.47
74228;BME280;62587;52.352;5.006;2022-07-30T08:22:50;101903.59;;;24.79;46.48
74228;BME280;62587;52.352;5.006;2022-07-30T08:25:15;101908.13;;;24.78;46.42
74228;BME280;62587;52.352;5.006;2022-07-30T08:27:43;101911.53;;;24.80;46.48
74228;BME280;62587;52.352;5.006;2022-07-30T08:30:09;101905.44;;;24.78;46.33
74228;BME280;62587;52.352;5.006;2022-07-30T08:32:35;101908.13;;;24.78;46.24
74228;BME280;62587;52.352;5.006;2022-07-30T08:35:01;101908.84;;;24.80;46.42
74228;BME280;62587;52.352;5.006;2022-07-30T08:37:26;101897.19;;;24.69;46.29
74228;BME280;62587;52.352;5.006;2022-07-30T08:39:52;101907.13;;;24.79;46.28
74228;BME280;62587;52.352;5.006;2022-07-30T08:42:17;101895.03;;;24.74;46.04
74228;BME280;62587;52.352;5.006;2022-07-30T08:44:45;101901.91;;;24.78;46.30
74228;BME280;62587;52.352;5.006;2022-07-30T08:47:15;101903.59;;;24.79;46.13
74228;BME280;62587;52.352;5.006;2022-07-30T08:49:41;101907.25;;;24.78;46.28
74228;BME280;62587;52.352;5.006;2022-07-30T08:52:09;101906.78;;;24.84;46.03
74228;BME280;62587;52.352;5.006;2022-07-30T08:54:34;101901.78;;;24.79;46.10
74228;BME280;62587;52.352;5.006;2022-07-30T08:57:00;101907.13;;;24.79;46.34
74228;BME280;62587;52.352;5.006;2022-07-30T08:59:26;101907.78;;;24.83;46.16
74228;BME280;62587;52.352;5.006;2022-07-30T09:01:52;101906.19;;;24.80;46.23
74228;BME280;62587;52.352;5.006;2022-07-30T09:04:17;101922.34;;;24.79;46.02
74228;BME280;62587;52.352;5.006;2022-07-30T09:06:43;101925.03;;;24.79;45.83
74228;BME280;62587;52.352;5.006;2022-07-30T09:09:09;101926.97;;;24.77;46.00
74228;BME280;62587;52.352;5.006;2022-07-30T09:11:34;101927.69;;;24.79;46.00
74228;BME280;62587;52.352;5.006;2022-07-30T09:14:11;101922.34;;;24.79;45.98
74228;BME280;62587;52.352;5.006;2022-07-30T09:16:37;101928.22;;;24.84;45.99
74228;BME280;62587;52.352;5.006;2022-07-30T09:19:18;101928.88;;;24.87;45.74
74228;BME280;62587;52.352;5.006;2022-07-30T09:22:00;101921.69;;;24.88;45.35
74228;BME280;62587;52.352;5.006;2022-07-30T09:24:26;101928.75;;;24.89;45.50
74228;BME280;62587;52.352;5.006;2022-07-30T09:26:59;101921.56;;;24.89;45.52
74228;BME280;62587;52.352;5.006;2022-07-30T09:29:27;101929.63;;;24.89;45.53
74228;BME280;62587;52.352;5.006;2022-07-30T09:32:04;101924.38;;;24.88;45.50
74228;BME280;62587;52.352;5.006;2022-07-30T09:34:35;101926.06;;;24.89;45.37
74228;BME280;62587;52.352;5.006;2022-07-30T09:37:03;101926.19;;;24.87;45.48
74228;BME280;62587;52.352;5.006;2022-07-30T09:39:33;101918.03;;;24.89;45.43
74228;BME280;62587;52.352;5.006;2022-07-30T09:42:00;101916.63;;;24.96;45.42
74228;BME280;62587;52.352;5.006;2022-07-30T09:44:26;101906.97;;;24.93;45.47
74228;BME280;62587;52.352;5.006;2022-07-30T09:46:52;101909.78;;;24.92;45.54
74228;BME280;62587;52.352;5.006;2022-07-30T09:49:20;101911.25;;;24.96;45.70
74228;BME280;62587;52.352;5.006;2022-07-30T09:51:46;101905.81;;;24.97;45.47
74228;BME280;62587;52.352;5.006;2022-07-30T09:54:12;101904.94;;;24.97;45.52
74228;BME280;62587;52.352;5.006;2022-07-30T09:56:37;101912.63;;;25.01;45.65
74228;BME280;62587;52.352;5.006;2022-07-30T09:59:04;101904.47;;;25.03;45.84
74228;BME280;62587;52.352;5.006;2022-07-30T10:01:49;101900.38;;;25.10;45.67
74228;BME280;62587;52.352;5.006;2022-07-30T10:04:28;101889.66;;;25.10;45.56
74228;BME280;62587;52.352;5.006;2022-07-30T10:06:55;101895.00;;;25.10;45.60
74228;BME280;62587;52.352;5.006;2022-07-30T10:11:58;101900.38;;;25.10;45.56
74228;BME280;62587;52.352;5.006;2022-07-30T10:14:28;101899.28;;;25.12;45.63
74228;BME280;62587;52.352;5.006;2022-07-30T10:16:53;101900.06;;;25.14;45.60
74228;BME280;62587;52.352;5.006;2022-07-30T10:19:20;101896.53;;;25.14;45.66
74228;BME280;62587;52.352;5.006;2022-07-30T10:21:48;101890.94;;;25.17;45.56
74228;BME280;62587;52.352;5.006;2022-07-30T10:24:16;101896.91;;;25.20;45.80
74228;BME280;62587;52.352;5.006;2022-07-30T10:26:43;101899.81;;;25.17;45.36
74228;BME280;62587;52.352;5.006;2022-07-30T10:29:10;101899.94;;;25.16;45.43
74228;BME280;62587;52.352;5.006;2022-07-30T10:31:35;101909.78;;;25.15;45.48
74228;BME280;62587;52.352;5.006;2022-07-30T10:34:01;101913.22;;;25.17;45.34
74228;BME280;62587;52.352;5.006;2022-07-30T10:36:27;101899.94;;;25.16;45.23
74228;BME280;62587;52.352;5.006;2022-07-30T10:38:53;101911.53;;;25.16;45.20
74228;BME280;62587;52.352;5.006;2022-07-30T10:41:36;101903.22;;;25.19;45.03
74228;BME280;62587;52.352;5.006;2022-07-30T10:44:43;101909.44;;;25.20;45.18
74228;BME280;62587;52.352;5.006;2022-07-30T10:47:14;101908.50;;;25.21;44.98
74228;BME280;62587;52.352;5.006;2022-07-30T10:49:40;101908.59;;;25.19;44.82
74228;BME280;62587;52.352;5.006;2022-07-30T10:52:05;101907.41;;;25.23;44.91
74228;BME280;62587;52.352;5.006;2022-07-30T10:54:36;101896.91;;;25.20;44.44
74228;BME280;62587;52.352;5.006;2022-07-30T10:57:15;101904.75;;;25.23;44.42
74228;BME280;62587;52.352;5.006;2022-07-30T11:02:27;101907.28;;;25.25;44.04
74228;BME280;62587;52.352;5.006;2022-07-30T11:07:47;101905.25;;;25.28;43.85
74228;BME280;62587;52.352;5.006;2022-07-30T11:13:00;101903.41;;;25.29;43.48
74228;BME280;62587;52.352;5.006;2022-07-30T11:15:52;101902.31;;;25.31;43.54
74228;BME280;62587;52.352;5.006;2022-07-30T11:18:25;101898.56;;;25.34;43.39
74228;BME280;62587;52.352;5.006;2022-07-30T11:21:13;101898.34;;;25.37;43.44
74228;BME280;62587;52.352;5.006;2022-07-30T11:23:40;101903.16;;;25.45;43.39
74228;BME280;62587;52.352;5.006;2022-07-30T11:26:07;101899.38;;;25.47;43.11
74228;BME280;62587;52.352;5.006;2022-07-30T11:28:37;101902.81;;;25.49;42.89
74228;BME280;62587;52.352;5.006;2022-07-30T11:31:32;101896.56;;;25.49;42.87
74228;BME280;62587;52.352;5.006;2022-07-30T11:37:08;101895.41;;;25.53;42.57
74228;BME280;62587;52.352;5.006;2022-07-30T11:42:29;101897.00;;;25.55;42.19
74228;BME280;62587;52.352;5.006;2022-07-30T11:47:47;101899.53;;;25.57;42.09
74228;BME280;62587;52.352;5.006;2022-07-30T11:50:17;101898.69;;;25.56;42.20
74228;BME280;62587;52.352;5.006;2022-07-30T11:52:47;101897.59;;;25.59;42.08
74228;BME280;62587;52.352;5.006;2022-07-30T11:55:23;101898.34;;;25.61;42.00
74228;BME280;62587;52.352;5.006;2022-07-30T11:57:49;101884.03;;;25.49;41.87
74228;BME280;62587;52.352;5.006;2022-07-30T12:00:15;101900.16;;;25.60;41.54
74228;BME280;62587;52.352;5.006;2022-07-30T12:02:46;101894.69;;;25.62;42.00
74228;BME280;62587;52.352;5.006;2022-07-30T12:05:13;101897.25;;;25.63;42.07
74228;BME280;62587;52.352;5.006;2022-07-30T12:07:38;101896.38;;;25.63;42.08
74228;BME280;62587;52.352;5.006;2022-07-30T12:10:17;101899.94;;;25.63;42.00
74228;BME280;62587;52.352;5.006;2022-07-30T12:12:45;101910.56;;;25.65;41.94
74228;BME280;62587;52.352;5.006;2022-07-30T12:15:30;101906.88;;;25.66;41.90
74228;BME280;62587;52.352;5.006;2022-07-30T12:17:56;101902.38;;;25.66;42.03
74228;BME280;62587;52.352;5.006;2022-07-30T12:20:21;101908.97;;;25.62;42.01
74228;BME280;62587;52.352;5.006;2022-07-30T12:22:46;101904.34;;;25.64;41.96
74228;BME280;62587;52.352;5.006;2022-07-30T12:25:13;101914.19;;;25.64;41.93
74228;BME280;62587;52.352;5.006;2022-07-30T12:27:39;101907.88;;;25.65;41.72
74228;BME280;62587;52.352;5.006;2022-07-30T12:30:05;101910.66;;;25.63;41.99
74228;BME280;62587;52.352;5.006;2022-07-30T12:32:31;101903.59;;;25.62;42.04
74228;BME280;62587;52.352;5.006;2022-07-30T12:34:57;101913.47;;;25.62;41.97
74228;BME280;62587;52.352;5.006;2022-07-30T12:37:23;101908.84;;;25.64;42.00
74228;BME280;62587;52.352;5.006;2022-07-30T12:40:13;101908.09;;;25.62;41.98
74228;BME280;62587;52.352;5.006;2022-07-30T12:42:54;101904.34;;;25.64;41.94
74228;BME280;62587;52.352;5.006;2022-07-30T12:45:30;101912.59;;;25.61;42.26
74228;BME280;62587;52.352;5.006;2022-07-30T12:47:59;101909.56;;;25.66;42.04
74228;BME280;62587;52.352;5.006;2022-07-30T12:50:25;101909.56;;;25.66;41.91
74228;BME280;62587;52.352;5.006;2022-07-30T12:52:53;101909.47;;;25.67;41.97
74228;BME280;62587;52.352;5.006;2022-07-30T12:55:28;101912.16;;;25.67;41.83
74228;BME280;62587;52.352;5.006;2022-07-30T12:58:02;101909.91;;;25.61;42.04
74228;BME280;62587;52.352;5.006;2022-07-30T13:00:53;101915.56;;;25.69;42.04
74228;BME280;62587;52.352;5.006;2022-07-30T13:03:25;101912.75;;;25.71;41.75
74228;BME280;62587;52.352;5.006;2022-07-30T13:05:53;101909.22;;;25.70;41.66
74228;BME280;62587;52.352;5.006;2022-07-30T13:08:19;101904.19;;;25.66;41.90
74228;BME280;62587;52.352;5.006;2022-07-30T13:10:58;101901.44;;;25.67;41.83
74228;BME280;62587;52.352;5.006;2022-07-30T13:13:27;101900.66;;;25.65;41.79